createdAt,value
2019-01-04T00:02:11.737Z,13.23
2019-01-04T00:04:43.138Z,11.13
2019-01-04T00:07:25.460Z,5.53
2019-01-04T00:09:57.655Z,4.17
2019-01-04T00:12:28.985Z,3.40
2019-01-04T00:15:01.510Z,4.67
2019-01-04T00:17:32.723Z,6.27
2019-01-04T00:20:05.231Z,7.63
2019-01-04T00:22:36.470Z,11.40
2019-01-04T00:25:07.708Z,9.83
2019-01-04T00:27:39.102Z,10.30
2019-01-04T00:30:12.053Z,11.10
2019-01-04T00:32:43.422Z,8.17
2019-01-04T00:35:14.682Z,12.57
2019-01-04T00:37:57.479Z,10.53
2019-01-04T00:40:28.886Z,11.20
2019-01-04T00:43:00.238Z,12.03
2019-01-04T00:45:32.580Z,12.93
2019-01-04T00:48:04.120Z,11.50
2019-01-04T00:50:36.448Z,15.30
2019-01-04T00:53:07.858Z,12.13
2019-01-04T00:56:15.977Z,15.37
2019-01-04T00:59:18.224Z,14.27
2019-01-04T01:02:45.329Z,21.03
2019-01-04T01:05:53.596Z,20.17
2019-01-04T01:09:11.717Z,20.77
2019-01-04T01:12:23.937Z,22.73
2019-01-04T01:15:20.676Z,22.83
2019-01-04T01:18:17.535Z,22.17
2019-01-04T01:21:49.978Z,19.47
2019-01-04T01:25:06.374Z,22.60
2019-01-04T01:28:26.764Z,19.70
2019-01-04T01:31:41.548Z,20.45
2019-01-04T01:34:45.174Z,21.02
2019-01-04T01:38:09.744Z,16.02
2019-01-04T01:41:30.434Z,16.75
2019-01-04T01:44:50.879Z,17.73
2019-01-04T01:47:45.440Z,18.55
2019-01-04T01:51:06.205Z,20.50
2019-01-04T01:53:43.937Z,37.03
2019-01-04T01:56:15.535Z,13.65
2019-01-04T01:58:57.344Z,7.35
2019-01-04T02:01:28.790Z,4.10
2019-01-04T02:03:59.991Z,3.72
2019-01-04T02:06:31.132Z,3.12
2019-01-04T02:09:07.327Z,4.03
2019-01-04T02:11:36.915Z,3.60
2019-01-04T02:14:10.509Z,2.60
2019-01-04T02:16:41.697Z,2.40
2019-01-04T02:19:13.300Z,2.40
2019-01-04T02:21:44.314Z,2.65
2019-01-04T02:24:16.395Z,2.15
2019-01-04T02:26:47.677Z,9.30
2019-01-04T02:29:19.300Z,5.87
2019-01-04T02:31:50.588Z,3.40
2019-01-04T02:34:21.783Z,7.35
2019-01-04T02:36:52.919Z,4.40
2019-01-04T02:39:24.597Z,3.47
2019-01-04T02:41:55.710Z,4.00
2019-01-04T02:44:27.210Z,4.95
2019-01-04T02:46:58.473Z,4.72
2019-01-04T02:49:29.791Z,4.55
2019-01-04T02:52:01.059Z,6.10
2019-01-04T02:54:32.491Z,7.70
2019-01-04T02:57:03.735Z,8.15
2019-01-04T02:59:35.336Z,7.75
2019-01-04T03:02:08.349Z,6.47
2019-01-04T03:04:39.577Z,5.35
2019-01-04T03:07:12.042Z,3.58
2019-01-04T03:09:43.127Z,9.13
2019-01-04T03:12:14.294Z,1.60
2019-01-04T03:14:45.759Z,11.83
2019-01-04T03:17:17.028Z,11.03
2019-01-04T03:19:48.425Z,8.33
2019-01-04T03:22:19.796Z,4.78
2019-01-04T03:24:51.188Z,16.20
2019-01-04T03:27:22.292Z,7.53
2019-01-04T03:29:53.848Z,8.15
2019-01-04T03:32:25.209Z,6.42
2019-01-04T03:34:56.521Z,11.45
2019-01-04T03:37:28.736Z,6.92
2019-01-04T03:40:00.154Z,5.33
2019-01-04T03:42:31.507Z,7.75
2019-01-04T03:45:03.153Z,7.53
2019-01-04T03:47:34.364Z,5.78
2019-01-04T03:50:06.047Z,5.15
2019-01-04T03:52:38.315Z,12.93
2019-01-04T03:55:09.851Z,5.15
2019-01-04T03:57:42.059Z,4.58
2019-01-04T04:00:13.536Z,6.47
2019-01-04T04:02:44.787Z,12.93
2019-01-04T04:05:16.083Z,11.03
2019-01-04T04:07:47.305Z,9.75
2019-01-04T04:10:18.557Z,16.17
2019-01-04T04:12:50.821Z,12.85
2019-01-04T04:15:22.192Z,21.77
2019-01-04T04:17:53.329Z,13.50
2019-01-04T04:20:24.774Z,22.37
2019-01-04T04:22:56.023Z,21.10
2019-01-04T04:25:27.247Z,23.18
2019-01-04T04:27:59.714Z,34.88
2019-01-04T04:30:30.960Z,34.58
2019-01-04T04:33:02.083Z,35.70
2019-01-04T04:35:33.287Z,25.70
2019-01-04T04:38:04.699Z,37.73
2019-01-04T04:40:36.168Z,25.35
2019-01-04T04:43:08.568Z,21.62
2019-01-04T04:45:40.006Z,11.55
2019-01-04T04:48:11.378Z,15.32
2019-01-04T04:50:42.823Z,26.15
2019-01-04T04:53:13.966Z,24.30
2019-01-04T04:55:45.265Z,24.95
2019-01-04T04:58:16.451Z,20.75
2019-01-04T05:00:47.688Z,22.87
2019-01-04T05:03:19.221Z,24.67
2019-01-04T05:05:51.386Z,28.02
2019-01-04T05:08:22.981Z,17.80
2019-01-04T05:10:54.474Z,28.70
2019-01-04T05:13:25.924Z,56.30
2019-01-04T05:15:57.229Z,36.93
2019-01-04T05:18:28.680Z,43.17
2019-01-04T05:21:00.482Z,47.65
2019-01-04T05:23:32.902Z,41.05
2019-01-04T05:26:04.323Z,40.58
2019-01-04T05:28:35.651Z,32.70
2019-01-04T05:31:07.979Z,21.42
2019-01-04T05:33:39.195Z,35.98
2019-01-04T05:36:10.423Z,41.68
2019-01-04T05:38:41.748Z,37.70
2019-01-04T05:41:13.035Z,24.47
2019-01-04T05:43:44.624Z,34.70
2019-01-04T05:46:16.016Z,26.97
2019-01-04T05:48:49.213Z,25.92
2019-01-04T05:51:21.006Z,35.60
2019-01-04T05:53:53.370Z,23.52
2019-01-04T05:56:24.783Z,23.10
2019-01-04T05:58:56.155Z,29.42
2019-01-04T06:01:28.711Z,32.55
2019-01-04T06:04:00.116Z,29.80
2019-01-04T06:06:31.527Z,25.00
2019-01-04T06:09:03.375Z,35.80
2019-01-04T06:11:34.669Z,40.43
2019-01-04T06:14:05.912Z,51.08
2019-01-04T06:16:37.747Z,45.90
2019-01-04T06:19:09.104Z,63.50
2019-01-04T06:21:40.653Z,54.93
2019-01-04T06:24:11.970Z,54.23
2019-01-04T06:26:43.241Z,72.75
2019-01-04T06:29:14.463Z,70.80
2019-01-04T06:31:47.294Z,70.55
2019-01-04T06:34:18.762Z,78.33
2019-01-04T06:36:50.072Z,97.60
2019-01-04T06:39:21.413Z,79.50
2019-01-04T06:41:55.575Z,91.75
2019-01-04T06:44:27.379Z,75.75
2019-01-04T06:47:15.895Z,60.15
2019-01-04T06:49:49.319Z,91.78
2019-01-04T06:52:22.224Z,130.20
2019-01-04T06:55:43.750Z,51.08
2019-01-04T06:58:15.275Z,66.28
2019-01-04T07:00:46.625Z,59.48
2019-01-04T07:03:17.872Z,52.65
2019-01-04T07:05:48.977Z,57.25
2019-01-04T07:08:20.405Z,48.23
2019-01-04T07:10:51.711Z,47.45
2019-01-04T07:13:22.976Z,56.23
2019-01-04T07:15:54.280Z,70.72
2019-01-04T07:18:26.165Z,74.65
2019-01-04T07:20:57.569Z,110.30
2019-01-04T07:23:29.525Z,83.17
2019-01-04T07:26:00.727Z,76.42
2019-01-04T07:28:31.983Z,85.70
2019-01-04T07:31:03.393Z,89.67
2019-01-04T07:33:34.665Z,98.05
2019-01-04T07:36:06.071Z,91.20
2019-01-04T07:38:37.228Z,68.17
2019-01-04T07:41:08.528Z,94.25
2019-01-04T07:43:40.330Z,75.97
2019-01-04T07:46:11.578Z,91.08
2019-01-04T07:48:42.870Z,105.50
2019-01-04T07:51:14.336Z,90.28
2019-01-04T07:53:45.720Z,91.30
2019-01-04T07:56:17.949Z,74.22
2019-01-04T07:58:49.440Z,63.40
2019-01-04T08:01:21.912Z,20.88
2019-01-04T08:03:53.408Z,21.62
2019-01-04T08:06:24.700Z,21.33
2019-01-04T08:08:56.033Z,17.95
2019-01-04T08:11:27.399Z,18.17
2019-01-04T08:13:58.840Z,18.00
2019-01-04T08:16:30.712Z,19.60
2019-01-04T08:19:02.105Z,20.52
2019-01-04T08:21:34.336Z,21.00
2019-01-04T08:24:05.707Z,20.35
2019-01-04T08:26:36.901Z,18.23
2019-01-04T08:29:08.334Z,16.55
2019-01-04T08:31:40.498Z,17.52
2019-01-04T08:34:11.753Z,16.32
2019-01-04T08:36:43.015Z,22.15
2019-01-04T08:39:14.252Z,19.07
2019-01-04T08:41:45.908Z,20.70
2019-01-04T08:44:18.361Z,18.65
2019-01-04T08:46:49.890Z,16.17
2019-01-04T08:49:21.270Z,19.62
2019-01-04T08:51:52.616Z,17.52
2019-01-04T08:54:23.702Z,18.70
2019-01-04T08:56:54.936Z,19.85
2019-01-04T08:59:26.390Z,19.20
2019-01-04T09:01:57.757Z,20.17
2019-01-04T09:04:29.140Z,45.65
2019-01-04T09:07:00.675Z,38.05
2019-01-04T09:09:32.166Z,26.87
2019-01-04T09:12:03.194Z,25.68
2019-01-04T09:14:34.655Z,25.08
2019-01-04T09:17:06.579Z,24.37
2019-01-04T09:19:37.751Z,27.35
2019-01-04T09:22:09.963Z,27.20
2019-01-04T09:24:41.246Z,28.17
2019-01-04T09:27:13.520Z,21.82
2019-01-04T09:29:44.741Z,23.98
2019-01-04T09:32:15.906Z,27.75
2019-01-04T09:34:47.308Z,24.47
2019-01-04T09:37:18.709Z,28.75
2019-01-04T09:39:50.204Z,29.05
2019-01-04T09:42:23.034Z,30.88
2019-01-04T09:44:54.371Z,28.98
2019-01-04T09:47:25.620Z,37.73
2019-01-04T09:49:56.944Z,28.80
2019-01-04T09:52:28.917Z,33.60
2019-01-04T09:55:00.421Z,41.75
2019-01-04T09:57:31.598Z,37.85
2019-01-04T10:00:02.965Z,34.73
2019-01-04T10:02:34.308Z,30.48
2019-01-04T10:05:05.988Z,34.92
2019-01-04T10:07:38.392Z,41.08
2019-01-04T10:10:11.896Z,39.50
2019-01-04T10:12:43.063Z,38.00
2019-01-04T10:15:18.174Z,33.98
2019-01-04T10:17:50.930Z,24.95
2019-01-04T10:20:22.214Z,31.75
2019-01-04T10:22:53.456Z,35.13
2019-01-04T10:25:24.713Z,40.83
2019-01-04T10:27:55.969Z,50.23
2019-01-04T10:30:28.852Z,55.08
2019-01-04T10:33:00.195Z,65.42
2019-01-04T10:35:31.419Z,71.87
2019-01-04T10:38:02.700Z,71.17
2019-01-04T10:40:34.156Z,44.13
2019-01-04T10:43:05.567Z,41.23
2019-01-04T10:45:36.967Z,31.45
2019-01-04T10:48:08.145Z,47.67
2019-01-04T10:50:39.562Z,34.83
2019-01-04T10:53:10.801Z,26.48
2019-01-04T10:55:42.288Z,24.60
2019-01-04T10:58:13.504Z,27.02
2019-01-04T11:00:45.046Z,29.85
2019-01-04T11:03:16.314Z,30.50
2019-01-04T11:05:47.672Z,25.37
2019-01-04T11:08:18.958Z,28.90
2019-01-04T11:10:51.294Z,30.60
2019-01-04T11:13:21.447Z,33.25
2019-01-04T11:15:52.824Z,36.13
2019-01-04T11:18:25.132Z,43.20
2019-01-04T11:20:58.910Z,45.58
2019-01-04T11:24:13.733Z,38.55
2019-01-04T11:27:03.692Z,47.27
2019-01-04T11:30:20.087Z,44.00
2019-01-04T11:33:34.421Z,41.65
2019-01-04T11:36:46.396Z,42.13
2019-01-04T11:39:41.225Z,44.30
2019-01-04T11:42:42.064Z,32.45
2019-01-04T11:45:57.434Z,31.02
2019-01-04T11:49:24.587Z,31.55
2019-01-04T11:52:16.086Z,35.38
2019-01-04T11:54:47.433Z,33.92
2019-01-04T11:57:19.816Z,39.95
2019-01-04T11:59:52.074Z,37.65
2019-01-04T12:02:26.466Z,39.08
2019-01-04T12:05:02.160Z,43.17
2019-01-04T12:07:33.489Z,41.75
2019-01-04T12:10:04.954Z,54.70
2019-01-04T12:12:36.421Z,41.90
2019-01-04T12:15:09.282Z,68.47
2019-01-04T12:17:40.722Z,56.77
2019-01-04T12:20:12.029Z,96.82
2019-01-04T12:22:44.109Z,77.37
2019-01-04T12:25:16.510Z,58.90
2019-01-04T12:27:48.105Z,54.90
2019-01-04T12:30:19.271Z,32.73
2019-01-04T12:32:50.760Z,46.63
2019-01-04T12:35:22.071Z,66.60
2019-01-04T12:37:53.423Z,28.75
2019-01-04T12:40:24.655Z,31.25
2019-01-04T12:42:56.050Z,32.23
2019-01-04T12:45:27.811Z,62.40
2019-01-04T12:47:59.105Z,121.37
2019-01-04T12:50:30.990Z,84.47
2019-01-04T12:53:21.109Z,85.65
2019-01-04T12:55:53.623Z,115.60
2019-01-04T12:58:26.057Z,106.35
2019-01-04T13:00:58.187Z,56.90
2019-01-04T13:03:29.854Z,123.75
2019-01-04T13:06:12.363Z,101.78
2019-01-04T13:08:46.198Z,77.82
2019-01-04T13:11:19.694Z,58.40
2019-01-04T13:13:54.595Z,55.30
2019-01-04T13:16:38.045Z,104.92
2019-01-04T13:19:18.726Z,24.00
2019-01-04T13:21:59.484Z,27.52
2019-01-04T13:24:33.690Z,36.50
2019-01-04T13:27:08.644Z,40.78
2019-01-04T13:29:44.948Z,62.62
2019-01-04T13:32:20.149Z,50.38
2019-01-04T13:34:51.656Z,36.28
2019-01-04T13:37:23.334Z,39.63
2019-01-04T13:39:55.090Z,24.75
2019-01-04T13:42:26.395Z,37.98
2019-01-04T13:44:57.740Z,64.37
2019-01-04T13:47:32.220Z,53.78
2019-01-04T13:50:02.008Z,29.20
2019-01-04T13:52:33.227Z,58.02
2019-01-04T13:55:04.558Z,28.17
2019-01-04T13:57:47.831Z,39.50
2019-01-04T14:00:20.187Z,22.98
2019-01-04T14:02:51.600Z,44.30
2019-01-04T14:05:23.559Z,21.50
2019-01-04T14:07:55.260Z,17.50
2019-01-04T14:10:28.890Z,29.12
2019-01-04T14:13:02.456Z,19.80
2019-01-04T14:15:34.027Z,22.60
2019-01-04T14:18:05.359Z,34.45
2019-01-04T14:20:36.519Z,56.25
2019-01-04T14:23:07.928Z,30.95
2019-01-04T14:25:39.209Z,20.52
2019-01-04T14:28:10.528Z,32.75
2019-01-04T14:30:41.997Z,29.77
2019-01-04T14:33:13.303Z,31.05
2019-01-04T14:35:44.696Z,18.15
2019-01-04T14:38:17.850Z,14.78
2019-01-04T14:40:49.059Z,35.98
2019-01-04T14:43:21.419Z,24.23
2019-01-04T14:45:52.710Z,22.30
2019-01-04T14:48:24.061Z,13.25
2019-01-04T14:50:56.044Z,12.90
2019-01-04T14:53:27.551Z,17.27
2019-01-04T14:55:59.086Z,15.53
2019-01-04T14:58:30.928Z,14.45
2019-01-04T15:01:02.208Z,16.93
2019-01-04T15:03:34.711Z,14.05
2019-01-04T15:06:06.235Z,10.90
2019-01-04T15:08:37.650Z,11.28
2019-01-04T15:11:08.917Z,11.68
2019-01-04T15:13:40.298Z,20.55
2019-01-04T15:16:12.080Z,67.85
2019-01-04T15:18:43.466Z,43.95
2019-01-04T15:21:14.777Z,32.88
2019-01-04T15:23:46.173Z,67.92
2019-01-04T15:26:18.364Z,33.00
2019-01-04T15:28:49.590Z,14.80
2019-01-04T15:31:21.118Z,7.35
2019-01-04T15:33:52.614Z,9.45
2019-01-04T15:36:23.943Z,11.65
2019-01-04T15:38:55.223Z,5.17
2019-01-04T15:41:26.476Z,7.45
2019-01-04T15:43:57.878Z,9.53
2019-01-04T15:46:29.223Z,7.20
2019-01-04T15:49:00.464Z,7.03
2019-01-04T15:51:43.881Z,6.25
2019-01-04T15:54:15.752Z,6.58
2019-01-04T15:56:47.041Z,6.47
2019-01-04T15:59:18.286Z,6.75
2019-01-04T16:01:49.658Z,5.87
2019-01-04T16:04:21.156Z,8.23
2019-01-04T16:06:53.064Z,10.25
2019-01-04T16:09:24.590Z,7.00
2019-01-04T16:11:56.094Z,8.25
2019-01-04T16:14:27.515Z,11.30
2019-01-04T16:16:58.979Z,15.32
2019-01-04T16:19:30.408Z,13.70
2019-01-04T16:22:01.787Z,18.17
2019-01-04T16:24:33.716Z,16.02
2019-01-04T16:27:06.274Z,27.90
2019-01-04T16:29:37.472Z,20.35
2019-01-04T16:32:08.731Z,17.05
2019-01-04T16:34:41.215Z,16.60
2019-01-04T16:41:12.427Z,30.00
2019-01-04T16:43:45.106Z,35.28
2019-01-04T16:46:27.238Z,43.73
2019-01-04T16:48:58.414Z,36.00
2019-01-04T16:51:29.693Z,29.27
2019-01-04T16:54:01.233Z,42.25
2019-01-04T16:56:32.913Z,65.85
2019-01-04T16:59:04.288Z,72.72
2019-01-04T17:01:35.652Z,57.27
2019-01-04T17:04:06.928Z,45.45
2019-01-04T17:06:38.543Z,61.48
2019-01-04T17:09:11.366Z,86.85
2019-01-04T17:11:42.873Z,112.47
2019-01-04T17:14:14.007Z,121.02
2019-01-04T17:16:45.420Z,185.18
2019-01-04T17:19:16.863Z,170.82
2019-01-04T17:21:49.049Z,183.75
2019-01-04T17:24:20.205Z,93.67
2019-01-04T17:26:51.515Z,64.75
2019-01-04T17:29:22.763Z,143.62
2019-01-04T17:31:54.121Z,127.32
2019-01-04T17:34:25.443Z,107.22
2019-01-04T17:36:56.905Z,116.65
2019-01-04T17:39:28.092Z,73.30
2019-01-04T17:41:59.464Z,69.62
2019-01-04T17:44:30.759Z,103.40
2019-01-04T17:47:02.411Z,76.30
2019-01-04T17:49:33.737Z,33.98
2019-01-04T17:52:05.322Z,40.08
2019-01-04T17:54:36.785Z,32.40
2019-01-04T17:57:08.330Z,44.83
2019-01-04T17:59:39.780Z,54.63
2019-01-04T18:02:11.376Z,59.38
2019-01-04T18:04:42.665Z,68.07
2019-01-04T18:07:14.413Z,42.45
2019-01-04T18:09:45.787Z,45.63
2019-01-04T18:12:17.132Z,56.73
2019-01-04T18:14:48.576Z,39.75
2019-01-04T18:17:20.231Z,26.20
2019-01-04T18:19:51.363Z,22.07
2019-01-04T18:22:22.885Z,58.65
2019-01-04T18:24:54.384Z,66.70
2019-01-04T18:27:25.834Z,53.13
2019-01-04T18:29:57.409Z,111.32
2019-01-04T18:32:28.927Z,95.30
2019-01-04T18:35:03.484Z,93.20
2019-01-04T18:37:35.156Z,98.22
2019-01-04T18:40:08.556Z,85.57
2019-01-04T18:42:40.331Z,74.40
2019-01-04T18:45:11.794Z,95.77
2019-01-04T18:47:43.441Z,84.07
2019-01-04T18:50:16.678Z,88.05
2019-01-04T18:52:48.426Z,73.28
2019-01-04T18:55:20.523Z,111.52
2019-01-04T18:57:53.315Z,84.05
2019-01-04T19:00:26.236Z,85.38
2019-01-04T19:02:59.278Z,85.00
2019-01-04T19:05:32.953Z,149.95
2019-01-04T19:08:06.379Z,127.32
2019-01-04T19:10:39.360Z,29.82
2019-01-04T19:13:12.630Z,44.25
2019-01-04T19:15:44.618Z,59.77
2019-01-04T19:18:17.922Z,33.90
2019-01-04T19:20:50.046Z,26.00
2019-01-04T19:23:23.127Z,21.57
2019-01-04T19:25:54.925Z,19.62
2019-01-04T19:28:26.776Z,20.80
2019-01-04T19:30:59.411Z,29.12
2019-01-04T19:33:31.349Z,46.88
2019-01-04T19:36:03.199Z,52.10
2019-01-04T19:38:35.036Z,21.87
2019-01-04T19:41:06.710Z,19.45
2019-01-04T19:43:38.243Z,15.85
2019-01-04T19:46:09.580Z,15.03
2019-01-04T19:48:41.270Z,43.78
2019-01-04T19:51:12.787Z,84.85
2019-01-04T19:53:44.366Z,65.95
2019-01-04T19:56:15.801Z,104.47
2019-01-04T19:58:47.505Z,88.12
2019-01-04T20:01:18.856Z,142.35
2019-01-04T20:03:50.113Z,68.90
2019-01-04T20:07:18.359Z,67.30
2019-01-04T20:10:47.491Z,67.72
2019-01-04T20:14:21.942Z,51.77
2019-01-04T20:17:26.678Z,50.08
2019-01-04T20:20:15.896Z,131.03
2019-01-04T20:23:15.355Z,35.63
2019-01-04T20:26:17.463Z,54.18
2019-01-04T20:29:10.676Z,60.52
2019-01-04T20:31:59.705Z,29.92
2019-01-04T20:34:49.890Z,94.28
2019-01-04T20:37:38.899Z,92.53
2019-01-04T20:40:35.327Z,91.57
2019-01-04T20:43:25.397Z,29.98
2019-01-04T20:46:21.576Z,20.48
2019-01-04T20:49:10.447Z,22.58
2019-01-04T20:52:07.351Z,42.60
2019-01-04T20:54:56.384Z,25.43
2019-01-04T20:57:58.500Z,33.08
2019-01-04T21:00:46.962Z,33.73
2019-01-04T21:03:40.947Z,21.25
2019-01-04T21:06:31.013Z,35.15
2019-01-04T21:09:37.078Z,38.80
2019-01-04T21:12:46.659Z,15.32
2019-01-04T21:15:35.520Z,15.88
2019-01-04T21:18:22.220Z,20.65
2019-01-04T21:21:24.468Z,20.77
2019-01-04T21:24:20.702Z,20.08
2019-01-04T21:27:10.868Z,23.55
2019-01-04T21:30:10.442Z,18.23
2019-01-04T21:33:04.783Z,20.15
2019-01-04T21:36:06.888Z,18.65
2019-01-04T21:39:09.831Z,14.87
2019-01-04T21:41:58.917Z,17.25
2019-01-04T21:44:49.059Z,19.82
2019-01-04T21:47:39.228Z,17.95
2019-01-04T21:50:44.803Z,19.80
2019-01-04T21:53:52.989Z,35.68
2019-01-04T21:56:41.943Z,28.05
2019-01-04T21:59:31.949Z,38.65
2019-01-04T22:02:25.072Z,29.67
2019-01-04T22:05:30.358Z,23.77
2019-01-04T22:08:15.716Z,42.85
2019-01-04T22:11:11.705Z,93.52
2019-01-04T22:14:08.069Z,80.95
2019-01-04T22:17:04.153Z,92.30
2019-01-04T22:19:54.208Z,120.87
2019-01-04T22:22:42.804Z,101.12
2019-01-04T22:25:31.832Z,139.30
2019-01-04T22:28:25.053Z,97.02
2019-01-04T22:31:14.024Z,127.78
2019-01-04T22:34:24.539Z,138.65
2019-01-04T22:37:20.444Z,74.30
2019-01-04T22:40:19.671Z,98.27
2019-01-04T22:43:16.764Z,125.00
2019-01-04T22:46:06.660Z,34.98
2019-01-04T22:49:02.810Z,20.62
2019-01-04T22:51:52.966Z,26.12
2019-01-04T22:54:54.605Z,33.90
2019-01-04T22:57:57.101Z,67.87
2019-01-04T23:00:47.740Z,39.35
2019-01-04T23:03:36.255Z,70.40
2019-01-04T23:06:35.103Z,85.95
2019-01-04T23:09:27.592Z,84.67
2019-01-04T23:12:29.778Z,83.62
2019-01-04T23:15:25.768Z,65.32
2019-01-04T23:18:28.420Z,63.83
2019-01-04T23:22:10.086Z,37.48
2019-01-04T23:24:58.898Z,86.78
2019-01-04T23:27:54.575Z,58.58
2019-01-04T23:30:43.591Z,54.25
2019-01-04T23:33:32.570Z,64.53
2019-01-04T23:36:25.396Z,41.58
2019-01-04T23:39:27.076Z,21.90
2019-01-04T23:42:16.987Z,18.23
2019-01-04T23:45:13.459Z,20.92
2019-01-04T23:48:06.524Z,16.23
2019-01-04T23:50:59.757Z,17.52
2019-01-04T23:53:48.403Z,14.90
2019-01-04T23:56:53.688Z,14.43
2019-01-04T23:59:42.485Z,18.02
